Time;durP1;ratioP1;P1;durP2;ratioP2;P2;SDS_P1;SDS_P2;PMS_P1;PMS_P2;Temp;Humidity;BMP_temperature;BMP_pressure;BME280_temperature;BME280_humidity;BME280_pressure;Samples;Min_cycle;Max_cycle;Signal;HPM_P1;HPM_P2
2022/01/19 00:00:12;;;;;;;4.55;4.15;;;6.10;99.90;;;;;;5008894;28;20704;-51
2022/01/19 00:02:41;;;;;;;4.30;3.90;;;6.10;99.90;;;;;;4993231;28;20194;-51
2022/01/19 00:05:11;;;;;;;5.68;4.72;;;6.10;99.90;;;;;;4998778;28;20541;-51
2022/01/19 00:07:40;;;;;;;6.00;4.82;;;6.10;99.90;;;;;;4995735;28;20222;-52
2022/01/19 00:10:12;;;;;;;4.75;4.35;;;6.10;99.90;;;;;;5006237;28;20286;-51
2022/01/19 00:12:42;;;;;;;4.93;4.15;;;6.10;99.90;;;;;;5004886;28;20985;-51
2022/01/19 00:15:12;;;;;;;5.20;3.70;;;6.10;99.90;;;;;;4997934;28;20237;-51
2022/01/19 00:17:41;;;;;;;5.03;4.03;;;6.10;99.90;;;;;;4983531;28;20645;-51
2022/01/19 00:20:10;;;;;;;6.05;4.93;;;6.10;99.90;;;;;;5006023;28;20256;-51
2022/01/19 00:22:38;;;;;;;6.30;5.30;;;6.10;99.90;;;;;;4978078;28;20190;-51
2022/01/19 00:25:08;;;;;;;4.93;4.35;;;6.10;99.90;;;;;;5010174;28;20316;-50
2022/01/19 00:27:36;;;;;;;5.57;4.63;;;6.10;99.90;;;;;;4995707;28;20194;-51
2022/01/19 00:30:05;;;;;;;5.07;4.57;;;6.10;99.90;;;;;;4996490;28;20293;-51
2022/01/19 00:32:35;;;;;;;6.00;4.30;;;6.10;99.90;;;;;;4999289;28;20205;-50
2022/01/19 00:35:05;;;;;;;6.13;4.80;;;6.10;99.90;;;;;;4987548;28;20277;-51
2022/01/19 00:37:33;;;;;;;5.05;4.30;;;6.10;99.90;;;;;;5017223;28;20569;-50
2022/01/19 00:40:02;;;;;;;4.53;4.13;;;6.10;99.90;;;;;;5022405;28;20287;-51
2022/01/19 00:42:31;;;;;;;6.57;4.72;;;6.10;99.90;;;;;;4980541;28;20199;-50
2022/01/19 00:44:59;;;;;;;4.50;3.55;;;6.10;99.90;;;;;;4973754;28;20742;-50
2022/01/19 00:47:27;;;;;;;4.07;3.75;;;6.10;99.90;;;;;;5007801;28;20218;-51
2022/01/19 00:49:57;;;;;;;4.45;4.00;;;6.10;99.90;;;;;;4993469;28;20230;-51
2022/01/19 00:52:25;;;;;;;4.88;3.95;;;6.10;99.90;;;;;;4989279;28;20551;-51
2022/01/19 00:54:53;;;;;;;3.90;3.53;;;6.10;99.90;;;;;;5001073;28;20309;-52
2022/01/19 00:57:21;;;;;;;8.32;4.78;;;6.10;99.90;;;;;;4988346;28;20214;-51
2022/01/19 00:59:50;;;;;;;4.53;3.78;;;6.10;99.90;;;;;;5002945;28;20222;-51
2022/01/19 01:02:18;;;;;;;7.80;4.57;;;6.10;99.90;;;;;;4993140;28;20187;-51
2022/01/19 01:04:47;;;;;;;6.07;4.13;;;6.10;99.90;;;;;;4999320;28;20269;-51
2022/01/19 01:07:17;;;;;;;7.78;5.50;;;6.10;99.90;;;;;;4988454;28;20198;-50
2022/01/19 01:09:45;;;;;;;6.38;5.30;;;6.10;99.90;;;;;;4994971;28;20232;-51
2022/01/19 01:12:20;;;;;;;7.85;4.55;;;6.10;99.90;;;;;;4991338;28;20194;-52
2022/01/19 01:20:21;;;;;;;4.50;4.03;;;6.10;99.90;;;;;;5003141;28;20709;-51
2022/01/19 01:22:51;;;;;;;4.53;4.03;;;6.10;99.90;;;;;;5020154;28;20201;-50
2022/01/19 01:25:19;;;;;;;6.85;4.63;;;6.10;99.90;;;;;;4995657;28;20640;-52
2022/01/19 01:27:52;;;;;;;6.30;4.38;;;6.10;99.90;;;;;;4987345;28;20269;-51
2022/01/19 01:30:24;;;;;;;6.28;5.35;;;6.10;99.90;;;;;;4976096;28;20253;-50
2022/01/19 01:32:53;;;;;;;6.00;4.63;;;6.00;99.90;;;;;;4988097;28;20689;-51
2022/01/19 01:35:24;;;;;;;5.00;4.50;;;6.00;99.90;;;;;;4988863;28;20215;-52
2022/01/19 01:37:56;;;;;;;6.40;4.50;;;6.00;99.90;;;;;;5003288;28;20198;-51
2022/01/19 01:40:26;;;;;;;5.60;4.65;;;6.00;99.90;;;;;;5001117;28;20210;-51
2022/01/19 01:42:55;;;;;;;5.32;3.67;;;6.00;99.90;;;;;;5003454;28;20438;-51
2022/01/19 01:45:28;;;;;;;5.85;4.57;;;6.00;99.90;;;;;;5005924;28;20221;-52
2022/01/19 01:48:06;;;;;;;5.40;4.07;;;6.10;99.90;;;;;;4991293;28;20202;-52
2022/01/19 01:53:30;;;;;;;4.47;3.90;;;6.00;99.90;;;;;;5022172;28;20201;-51
2022/01/19 01:56:05;;;;;;;4.18;3.78;;;6.00;99.90;;;;;;5004361;28;20228;-51
2022/01/19 01:58:36;;;;;;;5.95;4.43;;;6.00;99.90;;;;;;5022656;28;20217;-52
2022/01/19 02:01:25;;;;;;;5.63;4.03;;;6.00;99.90;;;;;;4970633;28;20222;-51
2022/01/19 02:03:53;;;;;;;5.00;3.97;;;6.00;99.90;;;;;;4980224;28;20215;-51
2022/01/19 02:06:31;;;;;;;4.82;3.58;;;6.00;99.90;;;;;;5007086;28;20202;-50
2022/01/19 02:09:18;;;;;;;4.85;4.45;;;6.00;99.90;;;;;;5021703;28;20225;-52
2022/01/19 02:23:12;;;;;;;4.47;4.07;;;6.00;99.90;;;;;;4987960;28;20199;-51
2022/01/19 02:25:43;;;;;;;8.13;4.85;;;6.00;99.90;;;;;;4997537;28;20245;-50
2022/01/19 02:31:46;;;;;;;5.72;4.03;;;6.00;99.90;;;;;;5017868;28;20589;-52
2022/01/19 02:42:39;;;;;;;6.70;4.22;;;6.00;99.90;;;;;;4986359;28;20194;-52
2022/01/19 02:50:42;;;;;;;3.40;3.10;;;5.90;99.90;;;;;;4988203;28;20226;-52
2022/01/19 02:53:11;;;;;;;4.38;3.25;;;5.90;99.90;;;;;;5000383;28;20375;-51
2022/01/19 02:55:41;;;;;;;4.03;3.60;;;5.90;99.90;;;;;;5005645;28;20210;-52
2022/01/19 02:58:12;;;;;;;4.00;3.40;;;5.90;99.90;;;;;;5008983;28;20681;-51
2022/01/19 03:08:43;;;;;;;3.80;3.45;;;6.00;99.90;;;;;;5005306;28;20222;-51
2022/01/19 03:09:21;;;;;;;5.15;4.30;;;6.00;99.90;;;;;;5004019;28;20599;-52
2022/01/19 03:11:49;;;;;;;4.55;3.67;;;5.90;99.90;;;;;;4991021;28;20681;-52
2022/01/19 03:14:18;;;;;;;3.55;3.05;;;5.90;99.90;;;;;;5004560;28;20218;-52
2022/01/19 03:16:47;;;;;;;3.13;2.83;;;5.90;99.90;;;;;;4996471;28;20298;-50
2022/01/19 03:19:21;;;;;;;4.13;3.67;;;5.90;99.90;;;;;;4993168;28;20683;-51
2022/01/19 03:21:49;;;;;;;5.07;3.80;;;5.90;99.90;;;;;;5025670;28;20660;-51
2022/01/19 03:24:18;;;;;;;5.75;3.92;;;5.90;99.90;;;;;;5004692;28;20296;-51
2022/01/19 03:26:51;;;;;;;3.85;3.30;;;5.90;99.90;;;;;;4995232;28;20203;-52
2022/01/19 03:29:24;;;;;;;3.92;3.55;;;5.90;99.90;;;;;;4995747;28;20221;-51
2022/01/19 03:31:52;;;;;;;3.60;2.90;;;5.90;99.90;;;;;;5013251;28;20690;-52
2022/01/19 03:34:21;;;;;;;3.20;2.90;;;5.90;99.90;;;;;;4997794;28;20257;-52
2022/01/19 03:36:57;;;;;;;4.25;3.40;;;5.90;99.90;;;;;;5008674;28;20194;-51
2022/01/19 03:39:25;;;;;;;3.83;3.53;;;5.90;99.90;;;;;;5017958;28;20747;-52
2022/01/19 03:41:55;;;;;;;4.43;4.03;;;5.90;99.90;;;;;;4998802;28;20270;-51
2022/01/19 03:44:23;;;;;;;3.30;3.05;;;5.90;99.90;;;;;;5007446;28;20483;-52
2022/01/19 03:46:55;;;;;;;3.88;3.30;;;5.90;99.90;;;;;;5004532;28;20203;-51
2022/01/19 03:49:27;;;;;;;3.50;2.88;;;5.90;99.90;;;;;;5005223;28;20575;-52
2022/01/19 03:52:01;;;;;;;4.30;3.90;;;5.90;99.90;;;;;;5005391;28;20214;-52
2022/01/19 03:54:34;;;;;;;3.83;3.10;;;5.90;99.90;;;;;;5012326;28;20218;-52
2022/01/19 03:57:05;;;;;;;4.03;3.25;;;5.90;99.90;;;;;;4995794;28;20225;-52
2022/01/19 03:59:33;;;;;;;3.40;3.10;;;5.90;99.90;;;;;;5001848;28;20258;-52
2022/01/19 04:02:03;;;;;;;3.28;2.90;;;5.90;99.90;;;;;;5003950;28;20207;-52
2022/01/19 04:04:38;;;;;;;3.30;2.83;;;5.90;99.90;;;;;;4993417;28;20225;-52
2022/01/19 04:07:26;;;;;;;3.85;2.60;;;5.90;99.90;;;;;;4984725;28;20193;-51
2022/01/19 04:09:54;;;;;;;2.97;2.35;;;5.90;99.90;;;;;;5008750;28;20226;-51
2022/01/19 04:12:41;;;;;;;3.35;2.92;;;5.90;99.90;;;;;;4982260;28;20298;-50
2022/01/19 04:15:12;;;;;;;3.45;3.03;;;5.90;99.90;;;;;;5017584;28;20476;-52
2022/01/19 04:17:47;;;;;;;4.13;2.80;;;5.90;99.90;;;;;;4996993;28;20682;-51
2022/01/19 04:20:15;;;;;;;5.75;3.63;;;5.90;99.90;;;;;;5023468;28;20696;-51
2022/01/19 04:22:43;;;;;;;3.03;2.50;;;5.90;99.90;;;;;;5009147;28;20740;-52
2022/01/19 04:25:12;;;;;;;2.83;2.40;;;5.90;99.90;;;;;;5000407;28;20773;-52
2022/01/19 04:27:43;;;;;;;3.70;3.00;;;5.90;99.90;;;;;;5005444;28;20249;-52
2022/01/19 04:30:14;;;;;;;3.38;2.83;;;5.90;99.90;;;;;;5023928;28;20323;-51
2022/01/19 04:33:06;;;;;;;2.67;2.47;;;5.90;99.90;;;;;;4989675;28;20660;-52
2022/01/19 04:35:49;;;;;;;4.00;3.05;;;5.90;99.90;;;;;;4989571;28;20317;-52
2022/01/19 04:39:05;;;;;;;3.40;3.10;;;5.90;99.90;;;;;;5001383;28;20214;-52
2022/01/19 04:44:31;;;;;;;2.50;2.30;;;5.90;99.90;;;;;;4988304;28;20245;-51
2022/01/19 05:04:07;;;;;;;2.90;2.60;;;5.90;99.90;;;;;;4977475;28;20293;-51
2022/01/19 05:06:47;;;;;;;2.30;2.10;;;5.90;99.90;;;;;;5004594;28;20187;-51
2022/01/19 05:09:29;;;;;;;3.10;2.80;;;5.90;99.90;;;;;;5003132;28;20302;-52
2022/01/19 05:14:46;;;;;;;2.90;2.60;;;5.90;99.90;;;;;;4988798;28;20245;-51
2022/01/19 05:17:16;;;;;;;3.67;2.50;;;5.90;99.90;;;;;;5003140;28;20191;-52
2022/01/19 05:19:44;;;;;;;2.40;2.13;;;5.80;99.90;;;;;;4988879;28;20230;-50
2022/01/19 05:22:12;;;;;;;4.93;3.70;;;5.80;99.90;;;;;;5003827;28;20190;-52
2022/01/19 05:24:46;;;;;;;2.75;2.50;;;5.80;99.90;;;;;;5004226;28;20230;-50
2022/01/19 05:27:21;;;;;;;2.88;2.58;;;5.80;99.90;;;;;;5007382;28;20717;-51
2022/01/19 05:29:50;;;;;;;3.20;2.30;;;5.80;99.90;;;;;;5006616;28;20701;-50
2022/01/19 05:32:20;;;;;;;3.05;2.75;;;5.80;99.90;;;;;;5006501;28;20614;-52
2022/01/19 05:34:48;;;;;;;3.20;2.90;;;5.80;99.90;;;;;;5018379;28;20217;-51
2022/01/19 05:37:37;;;;;;;2.78;2.42;;;5.80;99.90;;;;;;4996329;28;20198;-52
2022/01/19 05:40:15;;;;;;;3.15;2.85;;;5.80;99.90;;;;;;4995060;28;20222;-51
2022/01/19 05:42:53;;;;;;;4.18;2.97;;;5.80;99.90;;;;;;4989253;28;20233;-52
2022/01/19 05:45:22;;;;;;;4.07;3.38;;;5.80;99.90;;;;;;5002546;28;20644;-52
2022/01/19 05:47:51;;;;;;;2.70;2.40;;;5.80;99.90;;;;;;4989592;28;20202;-50
2022/01/19 05:50:19;;;;;;;3.55;2.60;;;5.80;99.90;;;;;;5003175;28;20222;-52
2022/01/19 05:52:57;;;;;;;3.88;2.72;;;5.80;99.90;;;;;;5003578;28;20276;-52
2022/01/19 05:55:25;;;;;;;2.95;2.17;;;5.80;99.90;;;;;;4998770;28;20222;-51
2022/01/19 05:57:53;;;;;;;2.75;2.30;;;5.80;99.90;;;;;;5003360;28;20614;-52
2022/01/19 06:00:22;;;;;;;2.42;2.20;;;5.80;99.90;;;;;;5003381;28;20218;-52
2022/01/19 06:02:52;;;;;;;3.15;2.58;;;5.80;99.90;;;;;;4982577;28;20186;-51
2022/01/19 06:05:48;;;;;;;4.25;2.50;;;5.80;99.90;;;;;;5022247;28;20271;-51
2022/01/19 06:08:42;;;;;;;2.97;2.55;;;5.80;99.90;;;;;;5006937;28;20225;-50
2022/01/19 06:11:13;;;;;;;2.60;2.33;;;5.80;99.90;;;;;;4997373;28;20218;-51
2022/01/19 06:13:44;;;;;;;3.65;2.55;;;5.80;99.90;;;;;;5003062;28;20690;-52
2022/01/19 06:16:12;;;;;;;2.88;2.53;;;5.80;99.90;;;;;;5004963;28;20562;-51
2022/01/19 06:18:44;;;;;;;3.47;2.70;;;5.80;99.90;;;;;;5013965;28;20513;-51
2022/01/19 06:21:16;;;;;;;4.13;3.58;;;5.80;99.90;;;;;;4993968;28;20559;-52
2022/01/19 06:23:49;;;;;;;4.45;3.20;;;5.80;99.90;;;;;;5006797;28;20186;-52
2022/01/19 06:26:20;;;;;;;3.45;2.92;;;5.80;99.90;;;;;;4994514;28;20209;-52
2022/01/19 06:28:52;;;;;;;5.05;4.55;;;5.80;99.90;;;;;;5002577;28;20716;-51
2022/01/19 06:31:20;;;;;;;2.92;2.63;;;5.80;99.90;;;;;;5001770;28;20196;-51
2022/01/19 06:33:52;;;;;;;6.38;2.40;;;5.80;99.90;;;;;;5001471;28;20793;-51
2022/01/19 06:36:25;;;;;;;2.45;2.03;;;5.70;99.90;;;;;;5022799;28;20561;-51
2022/01/19 06:39:26;;;;;;;2.60;2.40;;;5.70;99.90;;;;;;4975306;28;20694;-51
2022/01/19 06:42:05;;;;;;;3.88;3.47;;;5.70;99.90;;;;;;5011110;28;20259;-52
2022/01/19 06:44:34;;;;;;;3.53;3.22;;;5.70;99.90;;;;;;5013823;28;20241;-51
2022/01/19 06:47:02;;;;;;;4.50;3.03;;;5.80;99.90;;;;;;5008330;28;20226;-51
2022/01/19 06:49:31;;;;;;;3.92;3.28;;;5.70;99.90;;;;;;5003010;28;20645;-52
2022/01/19 06:52:01;;;;;;;4.10;3.22;;;5.70;99.90;;;;;;5003600;28;20203;-51
2022/01/19 06:54:29;;;;;;;4.50;3.25;;;5.70;99.90;;;;;;5004803;28;20237;-51
2022/01/19 06:56:57;;;;;;;2.88;2.67;;;5.70;99.90;;;;;;4996265;28;20606;-51
2022/01/19 06:59:35;;;;;;;4.47;4.05;;;5.70;99.90;;;;;;5007658;28;20229;-52
2022/01/19 07:02:21;;;;;;;4.85;2.85;;;5.70;99.90;;;;;;4990863;28;20186;-51
2022/01/19 07:05:04;;;;;;;3.00;2.70;;;5.70;99.90;;;;;;4987212;28;20585;-51
2022/01/19 07:07:42;;;;;;;3.25;2.95;;;5.70;99.90;;;;;;4990342;28;20744;-52
2022/01/19 07:10:10;;;;;;;4.10;2.42;;;5.70;99.90;;;;;;5004259;28;20274;-50
2022/01/19 07:12:39;;;;;;;2.50;2.30;;;5.70;99.90;;;;;;4983070;28;20199;-52
2022/01/19 07:15:09;;;;;;;2.53;2.30;;;5.70;99.90;;;;;;5008318;28;20217;-51
2022/01/19 07:17:38;;;;;;;2.38;2.17;;;5.70;99.90;;;;;;4994512;28;20202;-51
2022/01/19 07:20:10;;;;;;;4.07;3.05;;;5.70;99.90;;;;;;5002056;28;20222;-51
2022/01/19 07:22:39;;;;;;;3.22;2.92;;;5.70;99.90;;;;;;5013278;28;20187;-52
2022/01/19 07:25:10;;;;;;;2.90;2.15;;;5.70;99.90;;;;;;5002486;28;20313;-51
2022/01/19 07:27:38;;;;;;;3.10;2.80;;;5.70;99.90;;;;;;4997362;28;20628;-51
2022/01/19 07:30:08;;;;;;;4.05;2.47;;;5.70;99.90;;;;;;5006629;28;20253;-50
2022/01/19 07:32:38;;;;;;;4.75;3.20;;;5.70;99.90;;;;;;4995647;28;20215;-52
2022/01/19 07:35:10;;;;;;;2.97;2.67;;;5.70;99.90;;;;;;4988074;28;20226;-52
2022/01/19 07:37:39;;;;;;;2.58;2.35;;;5.70;99.90;;;;;;5021140;28;20581;-51
2022/01/19 07:40:10;;;;;;;2.75;2.20;;;5.70;99.90;;;;;;5018363;28;20316;-52
2022/01/19 07:42:39;;;;;;;2.42;2.22;;;5.70;99.90;;;;;;4982069;28;20245;-51
2022/01/19 07:45:08;;;;;;;2.30;2.05;;;5.70;99.90;;;;;;5004947;28;20320;-51
2022/01/19 07:47:45;;;;;;;2.03;1.83;;;5.70;99.90;;;;;;5015379;28;20189;-51
2022/01/19 07:50:39;;;;;;;2.72;2.35;;;5.70;99.90;;;;;;5004868;28;20225;-52
2022/01/19 07:53:42;;;;;;;1.85;1.75;;;5.70;99.90;;;;;;5005580;28;20244;-52
2022/01/19 07:56:33;;;;;;;2.75;2.45;;;5.70;99.90;;;;;;4998638;28;20669;-51
2022/01/19 07:59:28;;;;;;;3.20;2.75;;;5.70;99.90;;;;;;5027372;28;20230;-52
2022/01/19 08:02:00;;;;;;;2.97;2.53;;;5.70;99.90;;;;;;4998774;28;20195;-51
2022/01/19 08:04:55;;;;;;;2.92;2.33;;;5.70;99.90;;;;;;4990912;28;20218;-51
2022/01/19 08:07:29;;;;;;;2.38;2.17;;;5.70;99.90;;;;;;4997620;28;20244;-51
2022/01/19 08:09:57;;;;;;;2.72;2.20;;;5.70;99.90;;;;;;5012010;28;20249;-50
2022/01/19 08:12:25;;;;;;;2.90;2.70;;;5.70;99.90;;;;;;5008207;28;20256;-50
2022/01/19 08:14:54;;;;;;;2.55;2.33;;;5.60;99.90;;;;;;5021586;28;20250;-51
2022/01/19 08:17:30;;;;;;;2.28;2.08;;;5.70;99.90;;;;;;5005671;28;20207;-51
2022/01/19 08:19:58;;;;;;;3.00;2.30;;;5.60;99.90;;;;;;5002885;28;20280;-52
2022/01/19 08:22:27;;;;;;;2.95;1.95;;;5.60;99.90;;;;;;4999651;28;20240;-51
2022/01/19 08:25:17;;;;;;;2.65;2.22;;;5.60;99.90;;;;;;5012127;28;20218;-51
2022/01/19 08:27:46;;;;;;;2.42;2.22;;;5.60;99.90;;;;;;5000771;28;20199;-51
2022/01/19 08:30:16;;;;;;;3.00;2.75;;;5.60;99.90;;;;;;5014803;28;20222;-51
2022/01/19 08:32:45;;;;;;;2.97;2.50;;;5.60;99.90;;;;;;4997682;28;20276;-51
2022/01/19 08:35:17;;;;;;;3.13;2.05;;;5.60;99.90;;;;;;4992572;28;20213;-52
2022/01/19 08:37:58;;;;;;;2.65;2.35;;;5.60;99.90;;;;;;4986215;28;20200;-52
2022/01/19 08:40:30;;;;;;;3.08;2.65;;;5.60;99.90;;;;;;5011292;28;20217;-51
2022/01/19 08:43:14;;;;;;;2.85;2.42;;;5.60;99.90;;;;;;5006718;28;20209;-51
2022/01/19 08:45:43;;;;;;;2.50;2.30;;;5.60;99.90;;;;;;5008140;28;20523;-51
2022/01/19 08:48:14;;;;;;;2.85;2.40;;;5.60;99.90;;;;;;4990328;28;20246;-52
2022/01/19 08:50:53;;;;;;;3.35;2.97;;;5.60;99.90;;;;;;5003833;28;20222;-51
2022/01/19 08:53:35;;;;;;;3.53;2.78;;;5.60;99.90;;;;;;5006354;28;20206;-50
2022/01/19 08:56:26;;;;;;;2.67;2.47;;;5.60;99.90;;;;;;5011646;28;20273;-51
2022/01/19 08:58:55;;;;;;;3.40;2.83;;;5.60;99.90;;;;;;4987389;28;20641;-51
2022/01/19 09:01:24;;;;;;;2.58;2.35;;;5.60;99.90;;;;;;4998473;28;20274;-52
2022/01/19 09:03:53;;;;;;;4.82;2.80;;;5.60;99.90;;;;;;4989667;28;20198;-52
2022/01/19 09:06:22;;;;;;;2.42;2.22;;;5.60;99.90;;;;;;5014372;28;20598;-51
2022/01/19 09:08:50;;;;;;;2.75;2.08;;;5.60;99.90;;;;;;5000758;28;20586;-52
2022/01/19 09:11:18;;;;;;;3.28;3.08;;;5.60;99.90;;;;;;4987006;28;20194;-52
2022/01/19 09:13:49;;;;;;;2.88;2.58;;;5.60;99.90;;;;;;4988416;28;20205;-52
2022/01/19 09:16:19;;;;;;;3.30;2.92;;;5.60;99.90;;;;;;5002322;28;20600;-51
2022/01/19 09:18:48;;;;;;;2.40;2.20;;;5.60;99.90;;;;;;4983282;28;20221;-51
2022/01/19 09:21:17;;;;;;;4.18;3.40;;;5.60;99.90;;;;;;5002633;28;20198;-51
2022/01/19 09:23:45;;;;;;;3.63;2.75;;;5.60;99.90;;;;;;5003314;28;20186;-50
2022/01/19 09:26:15;;;;;;;3.47;2.60;;;5.60;99.90;;;;;;4991994;28;20191;-51
2022/01/19 09:28:43;;;;;;;2.58;2.38;;;5.60;99.90;;;;;;4994181;28;20242;-52
2022/01/19 09:31:35;;;;;;;5.35;4.18;;;5.60;99.90;;;;;;4993763;28;20288;-51
2022/01/19 09:34:10;;;;;;;3.85;3.45;;;5.60;99.90;;;;;;4990165;28;20222;-52
2022/01/19 09:36:44;;;;;;;3.72;3.40;;;5.60;99.90;;;;;;4988680;28;20233;-52
2022/01/19 09:39:17;;;;;;;3.17;2.65;;;5.60;99.90;;;;;;4987801;28;20226;-52
2022/01/19 09:41:46;;;;;;;3.15;2.92;;;5.50;99.90;;;;;;4973413;28;20282;-52
2022/01/19 09:44:15;;;;;;;3.70;3.40;;;5.60;99.90;;;;;;4983398;28;20711;-51
2022/01/19 09:46:46;;;;;;;2.70;2.50;;;5.50;99.90;;;;;;4968776;28;20187;-50
2022/01/19 09:49:17;;;;;;;3.10;2.80;;;5.50;99.90;;;;;;4983511;28;20313;-51
2022/01/19 09:51:48;;;;;;;3.85;3.55;;;5.50;99.90;;;;;;4990551;28;20190;-52
2022/01/19 09:54:23;;;;;;;3.00;2.80;;;5.50;99.90;;;;;;4988931;28;20709;-51
2022/01/19 09:56:53;;;;;;;2.65;2.40;;;5.50;99.90;;;;;;4981562;28;20309;-51
2022/01/19 09:59:23;;;;;;;4.00;3.47;;;5.50;99.90;;;;;;5002197;28;20292;-51
2022/01/19 10:01:55;;;;;;;2.60;2.40;;;5.50;99.90;;;;;;4981581;28;20205;-51
2022/01/19 10:04:26;;;;;;;3.45;3.15;;;5.60;99.90;;;;;;4994655;28;20214;-51
2022/01/19 10:07:11;;;;;;;5.00;4.50;;;5.60;99.90;;;;;;4986112;28;20605;-51
2022/01/19 10:09:54;;;;;;;2.83;2.58;;;5.50;99.90;;;;;;4985310;28;20253;-51
2022/01/19 10:18:14;;;;;;;4.80;4.30;;;5.50;99.90;;;;;;4986581;28;20265;-52
2022/01/19 10:20:43;;;;;;;3.55;3.25;;;5.50;99.90;;;;;;4987765;28;20732;-52
2022/01/19 10:23:36;;;;;;;4.43;3.83;;;5.50;99.90;;;;;;5002862;28;20666;-51
2022/01/19 10:26:07;;;;;;;4.63;4.20;;;5.50;99.90;;;;;;4993525;28;20219;-51
2022/01/19 10:28:58;;;;;;;4.20;3.80;;;5.50;99.90;;;;;;5012111;28;20214;-51
2022/01/19 10:31:27;;;;;;;2.90;2.60;;;5.50;99.90;;;;;;4988935;28;20276;-51
2022/01/19 10:34:18;;;;;;;3.88;3.53;;;5.50;99.90;;;;;;4975781;28;20190;-52
2022/01/19 10:36:49;;;;;;;3.90;3.55;;;5.50;99.90;;;;;;4987420;28;20696;-51
2022/01/19 10:39:22;;;;;;;4.57;4.18;;;5.50;99.90;;;;;;4991068;28;20222;-52
2022/01/19 10:42:02;;;;;;;4.47;3.63;;;5.50;99.90;;;;;;5001220;28;20203;-51
2022/01/19 10:44:33;;;;;;;5.97;5.10;;;5.50;99.90;;;;;;4994969;28;20668;-51
2022/01/19 10:47:47;;;;;;;5.53;4.68;;;5.50;99.90;;;;;;4989165;28;20183;-51
2022/01/19 10:50:23;;;;;;;3.30;3.03;;;5.50;99.90;;;;;;4988658;28;20225;-50
2022/01/19 10:52:51;;;;;;;5.57;4.80;;;5.50;99.90;;;;;;4987704;28;20468;-52
2022/01/19 10:55:28;;;;;;;4.15;3.75;;;5.50;99.90;;;;;;4985903;28;20253;-51
2022/01/19 10:57:59;;;;;;;5.53;4.22;;;5.50;99.90;;;;;;4985552;28;20777;-52
2022/01/19 11:00:30;;;;;;;4.32;3.88;;;5.50;99.90;;;;;;4990285;28;20217;-50
2022/01/19 11:03:18;;;;;;;6.65;4.75;;;5.50;99.90;;;;;;4985871;28;20221;-51
2022/01/19 11:05:50;;;;;;;5.65;5.13;;;5.50;99.90;;;;;;5001555;28;20339;-52
2022/01/19 11:08:21;;;;;;;5.68;5.07;;;5.50;99.90;;;;;;5009197;28;20249;-51
2022/01/19 11:10:52;;;;;;;5.75;3.97;;;5.50;99.90;;;;;;4996247;28;20303;-52
2022/01/19 11:13:29;;;;;;;4.85;4.40;;;5.50;99.90;;;;;;4978620;28;20202;-51
2022/01/19 11:15:59;;;;;;;3.92;3.58;;;5.50;99.90;;;;;;4999942;28;20582;-52
2022/01/19 11:18:29;;;;;;;4.93;4.53;;;5.40;99.90;;;;;;4985604;28;20210;-51
2022/01/19 11:21:03;;;;;;;6.97;6.28;;;5.50;99.90;;;;;;4986877;28;20701;-52
2022/01/19 11:23:43;;;;;;;7.00;5.70;;;5.50;99.90;;;;;;4987084;28;20214;-52
2022/01/19 11:26:16;;;;;;;6.45;4.85;;;5.50;99.90;;;;;;4986892;28;20213;-52
2022/01/19 11:28:49;;;;;;;5.15;4.50;;;5.50;99.90;;;;;;4971500;28;20215;-51
2022/01/19 11:31:35;;;;;;;5.07;3.80;;;5.40;99.90;;;;;;4986069;28;20187;-51
2022/01/19 11:34:04;;;;;;;5.85;5.25;;;5.50;99.90;;;;;;4970519;28;20633;-52
2022/01/19 11:36:36;;;;;;;5.88;4.50;;;5.40;99.90;;;;;;4997408;28;20676;-52
2022/01/19 11:39:07;;;;;;;3.90;3.33;;;5.50;99.90;;;;;;5010120;28;20240;-52
2022/01/19 11:41:55;;;;;;;6.43;5.80;;;5.50;99.90;;;;;;4995734;28;20253;-51
2022/01/19 11:44:39;;;;;;;6.25;5.63;;;5.40;99.90;;;;;;4970584;28;20226;-51
2022/01/19 11:47:21;;;;;;;4.57;3.38;;;5.40;99.90;;;;;;4975246;28;20254;-52
2022/01/19 11:49:54;;;;;;;4.50;4.05;;;5.50;99.90;;;;;;4978892;28;20226;-51
2022/01/19 11:52:28;;;;;;;4.80;4.35;;;5.50;99.90;;;;;;5003149;28;20280;-52
2022/01/19 11:55:12;;;;;;;4.57;4.18;;;5.40;99.90;;;;;;5006277;28;20439;-51
2022/01/19 11:57:41;;;;;;;5.43;4.93;;;5.40;99.90;;;;;;4990647;28;20386;-51
2022/01/19 12:00:21;;;;;;;5.82;4.80;;;5.40;99.90;;;;;;4988836;28;20249;-51
2022/01/19 12:02:54;;;;;;;3.70;3.30;;;5.40;99.90;;;;;;4989090;28;20210;-52
2022/01/19 12:05:44;;;;;;;6.30;4.55;;;5.50;99.90;;;;;;5016309;28;20297;-51
2022/01/19 12:11:16;;;;;;;4.80;4.30;;;5.50;99.90;;;;;;5121651;27;20559;-51
2022/01/19 12:19:28;;;;;;;5.82;4.40;;;5.50;99.90;;;;;;5093324;28;20233;-52
2022/01/19 12:22:05;;;;;;;4.93;4.50;;;5.40;99.90;;;;;;5104765;28;20224;-51
2022/01/19 12:24:41;;;;;;;5.80;4.53;;;5.40;99.90;;;;;;5088514;28;20226;-53
2022/01/19 12:27:31;;;;;;;7.60;6.15;;;5.40;99.90;;;;;;5065075;28;20206;-51
2022/01/19 12:30:10;;;;;;;5.00;4.32;;;5.40;99.90;;;;;;5053002;28;20224;-52
2022/01/19 12:32:51;;;;;;;4.78;4.28;;;5.40;99.90;;;;;;5044316;28;20290;-52
2022/01/19 12:35:34;;;;;;;5.25;4.35;;;5.40;99.90;;;;;;5046218;28;20216;-52
2022/01/19 12:38:08;;;;;;;4.03;3.63;;;5.40;99.90;;;;;;5063853;28;20548;-51
2022/01/19 12:40:48;;;;;;;5.70;5.20;;;5.40;99.90;;;;;;5052529;28;20253;-50
2022/01/19 12:43:32;;;;;;;9.48;5.35;;;5.40;99.90;;;;;;5064016;28;20187;-52
2022/01/19 12:46:04;;;;;;;5.13;4.63;;;5.40;99.90;;;;;;5063391;28;20694;-52
2022/01/19 12:48:47;;;;;;;5.45;4.65;;;5.40;99.90;;;;;;5062470;28;20227;-51
2022/01/19 12:51:35;;;;;;;7.38;4.82;;;5.40;99.90;;;;;;5083792;28;20239;-52
2022/01/19 12:54:04;;;;;;;4.90;4.40;;;5.40;99.90;;;;;;5059907;28;20715;-52
2022/01/19 12:56:58;;;;;;;5.32;4.82;;;5.40;99.90;;;;;;5048109;28;20582;-52
2022/01/19 12:59:28;;;;;;;6.65;4.93;;;5.40;99.90;;;;;;5062832;28;20212;-52
2022/01/19 13:01:59;;;;;;;7.68;5.35;;;5.40;99.90;;;;;;5072536;28;20277;-51
2022/01/19 13:04:29;;;;;;;4.55;4.15;;;5.40;99.90;;;;;;5080270;28;20288;-51
2022/01/19 13:07:18;;;;;;;5.90;4.40;;;5.40;99.90;;;;;;5066464;28;20199;-51
2022/01/19 13:10:09;;;;;;;6.05;5.22;;;5.40;99.90;;;;;;5060085;28;20564;-51
2022/01/19 13:12:45;;;;;;;7.00;5.45;;;5.40;99.90;;;;;;5044107;28;20668;-52
2022/01/19 13:19:16;;;;;;;6.40;5.20;;;5.40;99.90;;;;;;5073852;28;20288;-52
2022/01/19 13:21:47;;;;;;;8.02;5.80;;;5.40;99.90;;;;;;5074611;28;20260;-51
2022/01/19 13:24:22;;;;;;;6.05;4.70;;;5.40;99.90;;;;;;5047966;28;20224;-51
2022/01/19 13:26:54;;;;;;;5.93;5.35;;;5.40;99.90;;;;;;5041024;28;20203;-51
2022/01/19 13:29:26;;;;;;;6.25;5.53;;;5.40;99.90;;;;;;5057913;28;20277;-51
2022/01/19 13:32:15;;;;;;;6.25;5.47;;;5.40;99.90;;;;;;5062881;28;20201;-51
2022/01/19 13:34:57;;;;;;;5.50;4.95;;;5.40;99.90;;;;;;5036441;28;20221;-50
2022/01/19 13:37:32;;;;;;;5.10;4.60;;;5.40;99.90;;;;;;5068626;28;20692;-51
2022/01/19 13:40:07;;;;;;;7.47;4.90;;;5.40;99.90;;;;;;5068210;28;20598;-52
2022/01/19 13:42:41;;;;;;;5.80;5.20;;;5.40;99.90;;;;;;5036832;28;20223;-51
2022/01/19 13:45:18;;;;;;;5.63;4.45;;;5.40;99.90;;;;;;5036790;28;20228;-51
2022/01/19 13:47:55;;;;;;;5.95;5.40;;;5.40;99.90;;;;;;5036271;28;20758;-51
2022/01/19 13:50:26;;;;;;;6.25;4.80;;;5.40;99.90;;;;;;5029309;28;20622;-50
2022/01/19 13:52:54;;;;;;;6.28;4.95;;;5.40;99.90;;;;;;5029886;28;20193;-52
2022/01/19 13:55:25;;;;;;;5.25;4.75;;;5.40;99.90;;;;;;5041405;28;20730;-51
2022/01/19 13:58:05;;;;;;;5.47;4.60;;;5.40;99.90;;;;;;5042422;28;20224;-52
2022/01/19 14:00:37;;;;;;;5.45;4.95;;;5.40;99.90;;;;;;5048975;28;20705;-52
2022/01/19 14:03:07;;;;;;;5.38;4.70;;;5.40;99.90;;;;;;5047324;28;20250;-51
2022/01/19 14:05:42;;;;;;;6.03;4.90;;;5.40;99.90;;;;;;5048741;28;20600;-51
2022/01/19 14:08:11;;;;;;;8.32;6.53;;;5.40;99.90;;;;;;5048277;28;20227;-51
2022/01/19 14:10:40;;;;;;;5.93;5.32;;;5.40;99.90;;;;;;5061889;28;20223;-52
2022/01/19 14:13:27;;;;;;;5.38;4.82;;;5.40;99.90;;;;;;5089720;28;20183;-52
2022/01/19 14:16:19;;;;;;;6.80;5.88;;;5.40;99.90;;;;;;5088255;28;20227;-51
2022/01/19 14:19:08;;;;;;;5.53;4.80;;;5.40;99.90;;;;;;5064731;28;20607;-51
2022/01/19 14:21:58;;;;;;;5.32;4.82;;;5.40;99.90;;;;;;5067215;28;20195;-51
2022/01/19 14:24:27;;;;;;;6.07;5.00;;;5.40;99.90;;;;;;5088890;28;20447;-51
2022/01/19 14:26:59;;;;;;;5.40;4.78;;;5.40;99.90;;;;;;5074727;28;20188;-51
2022/01/19 14:29:27;;;;;;;5.82;4.70;;;5.40;99.90;;;;;;5044111;28;20720;-52
2022/01/19 14:31:58;;;;;;;6.90;5.57;;;5.40;99.90;;;;;;5054841;28;20209;-52
2022/01/19 14:34:37;;;;;;;5.20;4.60;;;5.40;99.90;;;;;;5056465;28;20683;-51
2022/01/19 14:37:12;;;;;;;4.45;3.90;;;5.40;99.90;;;;;;5049182;28;20200;-51
2022/01/19 14:39:54;;;;;;;4.95;4.45;;;5.40;99.90;;;;;;5039650;28;20220;-51
2022/01/19 14:42:26;;;;;;;5.20;4.70;;;5.40;99.90;;;;;;5029841;28;20190;-52
2022/01/19 14:45:01;;;;;;;5.88;4.93;;;5.40;99.90;;;;;;5049442;28;20219;-52
2022/01/19 14:47:37;;;;;;;6.10;5.05;;;5.40;99.90;;;;;;5038360;28;20239;-51
2022/01/19 14:50:24;;;;;;;6.18;5.03;;;5.40;99.90;;;;;;5060323;28;20219;-51
2022/01/19 14:52:56;;;;;;;8.82;6.45;;;5.40;99.90;;;;;;5038279;28;20254;-52
2022/01/19 14:55:27;;;;;;;5.93;4.88;;;5.40;99.90;;;;;;5048462;28;20212;-52
2022/01/19 14:57:59;;;;;;;7.75;5.55;;;5.40;99.90;;;;;;5047209;28;20199;-52